ěÝzenÝ letovÚho provozu ╚eskÚ republiky
Letiste: LKPR Aktualizace: 25.01.2022 11:45:29  UTC
 SPECI LKPR 25.01. 11:45 ...
SPECI LKPR 251145Z 26007KT 9999 FEW018 OVC022 02/00 Q1030 RMK REG QNH 1027=
 TAF LKPR 25.01. 11:00 ...
TAF LKPR 251100Z 2512/2618 27008KT 9999 SCT005 BKN012      TEMPO 2512/2518 OVC016      TEMPO 2518/2609 SCT020      PROB30 TEMPO 2600/2607 5000 BR SCT003      BECMG 2609/2611 24008KT BKN025=